YPRE weather

Premer Betoota Airport
New South Wales, Australia

Public forecast

Using degrees Celsius for public forecast. Weather courtesy of forecast.io.

METAR (pilot weather report)

Closest report is Coonabarabran Airport, 33.7 nm (62.5 km) WNW. Retrieved 2019/06/21 00:00 UTC (24 minutes ago):

YCBB 210000Z AUTO 20015KT 9999 // NCD 05/M03 Q1023

TAF (pilot weather forecast)

Forecast is more than 12 hours old.

Closest forecast is Tamworth Airport, 53.9 nm (99.8 km) ENE. Retrieved 2019/06/20 00:36 UTC (24 hours ago):

TAF YSTW 202255Z 2100/2118 VRB03KT CAVOK FM210200 21008KT CAVOK FM210900 15005KT CAVOK